Time;durP1;ratioP1;P1;durP2;ratioP2;P2;SDS_P1;SDS_P2;PMS_P1;PMS_P2;Temp;Humidity;BMP_temperature;BMP_pressure;BME280_temperature;BME280_humidity;BME280_pressure;Samples;Min_cycle;Max_cycle;Signal;HPM_P1;HPM_P2
2023/01/05 00:01:05;;;;;;;13.37;12.20;;;;;;;21.55;37.36;95850.81;6172795;28;105415;-78
2023/01/05 00:04:09;;;;;;;12.50;11.40;;;;;;;21.57;36.99;95861.19;6165505;28;103130;-78
2023/01/05 00:07:13;;;;;;;13.17;11.97;;;;;;;21.57;37.24;95861.19;6171639;28;103712;-77
2023/01/05 00:23:44;;;;;;;12.03;11.03;;;;;;;21.56;37.64;95847.06;6164237;28;104157;-77
2023/01/05 00:26:48;;;;;;;12.80;11.60;;;;;;;21.51;37.67;95833.81;6166859;28;103564;-78
2023/01/05 00:29:53;;;;;;;11.77;10.77;;;;;;;21.55;37.71;95836.72;6171596;28;105291;-77
2023/01/05 00:32:56;;;;;;;12.80;11.70;;;;;;;21.54;37.27;95837.78;6170123;28;103788;-76
2023/01/05 00:35:59;;;;;;;11.90;10.80;;;;;;;21.55;37.29;95831.38;6171844;28;104036;-78
2023/01/05 00:39:03;;;;;;;11.80;10.70;;;;;;;21.34;37.46;95796.97;6166365;28;102679;-77
2023/01/05 00:42:09;;;;;;;11.37;10.40;;;;;;;21.54;37.83;95827.91;6172522;28;103424;-78
2023/01/05 00:45:15;;;;;;;12.37;11.27;;;;;;;21.44;37.79;95814.69;6172355;28;104175;-76
2023/01/05 00:48:19;;;;;;;10.33;9.43;;;;;;;21.49;37.41;95819.97;6170733;28;102939;-77
2023/01/05 00:51:23;;;;;;;11.20;10.20;;;;;;;21.35;37.59;95790.59;6165695;28;103224;-77
2023/01/05 00:54:27;;;;;;;11.43;10.43;;;;;;;21.52;37.69;95825.53;6171199;28;106732;-77
2023/01/05 00:57:31;;;;;;;11.60;10.60;;;;;;;21.52;37.39;95822.88;6171317;28;103495;-78
2023/01/05 01:00:36;;;;;;;11.67;10.57;;;;;;;21.52;37.42;95822.09;6165533;28;105029;-77
2023/01/05 01:03:47;;;;;;;11.13;10.13;;;;;;;21.52;37.70;95825.53;6168106;28;103224;-77
2023/01/05 01:06:51;;;;;;;11.43;10.40;;;;;;;21.52;37.46;95825.53;6171326;28;105100;-76
2023/01/05 01:09:56;;;;;;;10.83;9.83;;;;;;;21.52;37.70;95811.44;6164569;28;105037;-77
2023/01/05 01:13:00;;;;;;;11.30;10.30;;;;;;;21.37;37.49;95801.75;6147623;28;105080;-76
2023/01/05 01:16:08;;;;;;;10.87;9.97;;;;;;;21.41;37.25;95808.06;6170045;28;102853;-76
2023/01/05 01:19:14;;;;;;;10.77;9.80;;;;;;;21.52;37.44;95816.75;6170623;28;102757;-77
2023/01/05 01:22:18;;;;;;;11.30;10.20;;;;;;;21.45;37.67;95809.09;6169803;28;102758;-76
2023/01/05 01:25:21;;;;;;;11.27;10.27;;;;;;;21.52;37.65;95814.09;6162303;28;105637;-77
2023/01/05 01:28:24;;;;;;;10.40;9.50;;;;;;;21.41;37.72;95793.97;6170819;28;102523;-77
2023/01/05 01:31:29;;;;;;;10.73;9.73;;;;;;;21.27;37.21;95780.53;6170623;28;104908;-77
2023/01/05 01:34:32;;;;;;;11.00;10.00;;;;;;;21.02;37.27;95727.53;6166769;28;105047;-76
2023/01/05 01:37:35;;;;;;;11.27;10.27;;;;;;;21.49;37.46;95794.13;6166056;28;104835;-77
2023/01/05 01:40:40;;;;;;;10.30;9.40;;;;;;;21.48;37.11;95792.53;6170492;28;102955;-77
2023/01/05 01:43:46;;;;;;;10.60;9.70;;;;;;;21.43;37.44;95787.28;6169225;28;103298;-76
2023/01/05 01:46:51;;;;;;;10.40;9.50;;;;;;;21.43;37.19;95767.84;6162723;28;103025;-77
2023/01/05 01:49:57;;;;;;;11.17;10.27;;;;;;;21.41;37.46;95765.47;6170216;28;103468;-77
2023/01/05 01:53:05;;;;;;;10.00;9.20;;;;;;;21.32;37.48;95745.84;6168306;28;103335;-77
2023/01/05 01:56:11;;;;;;;10.20;9.30;;;;;;;21.48;37.59;95765.91;6167940;28;102892;-76
2023/01/05 01:59:16;;;;;;;10.30;9.40;;;;;;;21.49;37.01;95764.03;6163491;28;103517;-77
2023/01/05 02:02:23;;;;;;;10.87;9.97;;;;;;;21.41;37.19;95748.72;6169644;28;102804;-76
2023/01/05 02:05:31;;;;;;;9.97;9.10;;;;;;;21.34;37.11;95727.75;6168789;28;103318;-76
2023/01/05 02:08:34;;;;;;;9.87;8.97;;;;;;;21.32;37.17;95729.09;6152267;28;102738;-77
2023/01/05 02:11:45;;;;;;;10.50;9.60;;;;;;;21.49;37.21;95743.53;6165177;28;102754;-77
2023/01/05 02:14:59;;;;;;;9.83;9.00;;;;;;;21.49;37.31;95740.88;6169154;28;103357;-77
2023/01/05 02:18:18;;;;;;;10.60;9.70;;;;;;;21.43;37.39;95726.03;6169064;28;104094;-76
2023/01/05 02:21:36;;;;;;;10.37;9.57;;;;;;;21.36;37.20;95709.63;6162289;28;103340;-77
2023/01/05 02:25:08;;;;;;;10.50;9.60;;;;;;;21.48;37.29;95727.84;6170409;28;102685;-77
2023/01/05 02:28:23;;;;;;;10.97;9.97;;;;;;;21.48;37.36;95719.84;6168992;28;107915;-77
2023/01/05 02:31:34;;;;;;;9.90;9.00;;;;;;;21.47;37.18;95721.72;6165031;28;104211;-76
2023/01/05 02:34:44;;;;;;;10.13;9.23;;;;;;;21.34;37.28;95695.81;6158245;28;103053;-78
2023/01/05 02:37:54;;;;;;;11.10;10.10;;;;;;;21.36;37.02;95696.31;6169437;28;103110;-78
2023/01/05 02:41:00;;;;;;;10.00;9.20;;;;;;;21.47;36.97;95715.63;6168525;28;103488;-78
2023/01/05 02:44:04;;;;;;;10.10;9.30;;;;;;;21.46;37.11;95712.16;6159750;28;103442;-77
2023/01/05 02:47:38;;;;;;;9.97;9.07;;;;;;;21.47;37.14;95716.41;6169489;28;102681;-78
2023/01/05 02:50:47;;;;;;;10.63;9.63;;;;;;;21.48;37.06;95711.88;6168583;28;104408;-78
2023/01/05 02:53:59;;;;;;;9.97;9.17;;;;;;;21.48;37.06;95717.19;6164880;28;103396;-77
2023/01/05 02:57:08;;;;;;;10.37;9.47;;;;;;;21.48;36.71;95717.19;6163800;28;102783;-78
2023/01/05 03:00:14;;;;;;;10.07;9.17;;;;;;;21.37;37.05;95689.91;6170111;28;103223;-77
2023/01/05 03:03:24;;;;;;;9.73;8.93;;;;;;;21.46;37.22;95698.84;6169360;28;105330;-77
2023/01/05 03:06:33;;;;;;;10.70;9.80;;;;;;;21.41;37.00;95685.59;6160972;28;103917;-77
2023/01/05 03:09:40;;;;;;;10.03;9.13;;;;;;;21.37;37.07;95667.81;6169895;28;104808;-77
2023/01/05 03:16:07;;;;;;;10.60;9.60;;;;;;;21.32;37.17;95657.22;6157390;28;103112;-77
2023/01/05 03:36:16;;;;;;;9.60;8.80;;;;;;;21.46;36.83;95645.59;6172741;28;103318;-77
2023/01/05 03:39:25;;;;;;;9.37;8.53;;;;;;;21.43;37.01;95651.50;6169633;28;103909;-77
2023/01/05 03:42:30;;;;;;;9.97;9.13;;;;;;;21.36;37.29;95642.28;6168714;28;102840;-77
2023/01/05 03:45:38;;;;;;;10.20;9.30;;;;;;;21.46;36.95;95653.56;6172158;28;103300;-77
2023/01/05 03:48:41;;;;;;;10.03;9.13;;;;;;;21.45;36.89;95636.03;6172475;28;105115;-77
2023/01/05 03:51:49;;;;;;;10.03;9.13;;;;;;;21.38;37.16;95640.91;6164739;28;103055;-77
2023/01/05 03:54:53;;;;;;;8.93;8.13;;;;;;;21.23;36.93;95625.13;6170133;28;102721;-76
2023/01/05 03:57:56;;;;;;;9.77;8.90;;;;;;;21.36;36.79;95632.44;6148230;28;103237;-77
2023/01/05 04:00:59;;;;;;;9.90;8.90;;;;;;;21.45;36.80;95649.34;6161186;28;102922;-76
2023/01/05 04:04:03;;;;;;;9.73;8.90;;;;;;;21.46;37.04;95644.78;6163154;28;103095;-77
2023/01/05 04:07:08;;;;;;;10.63;9.63;;;;;;;21.45;37.11;95629.91;6172917;28;104986;-79
2023/01/05 04:10:11;;;;;;;9.90;9.10;;;;;;;21.47;36.99;95643.72;6172777;28;103518;-77
2023/01/05 04:13:14;;;;;;;10.30;9.50;;;;;;;21.47;37.05;95636.53;6166154;28;103318;-77
2023/01/05 04:16:18;;;;;;;9.20;8.33;;;;;;;21.48;36.78;95631.97;6166790;28;103162;-76
2023/01/05 04:19:21;;;;;;;9.50;8.70;;;;;;;21.43;37.12;95629.41;6173012;27;102997;-79
2023/01/05 04:22:26;;;;;;;9.67;8.87;;;;;;;21.27;37.23;95588.09;6171048;28;103055;-78
2023/01/05 04:25:29;;;;;;;9.93;9.10;;;;;;;21.33;37.13;95590.38;6163440;28;102735;-78
2023/01/05 04:28:33;;;;;;;10.73;9.73;;;;;;;21.49;37.22;95601.63;6171209;28;102923;-79
2023/01/05 04:31:37;;;;;;;10.50;9.60;;;;;;;21.54;36.83;95616.75;6172483;28;103467;-78
2023/01/05 04:34:40;;;;;;;10.93;10.03;;;;;;;21.42;36.99;95603.84;6171586;28;102963;-78
2023/01/05 04:37:46;;;;;;;10.87;9.97;;;;;;;20.90;37.38;95520.41;6167439;28;103369;-79
2023/01/05 04:40:50;;;;;;;10.10;9.20;;;;;;;20.39;37.01;95443.16;6172591;28;102960;-78
2023/01/05 04:43:55;;;;;;;10.73;9.80;;;;;;;21.51;37.02;95616.25;6155087;28;103008;-79
2023/01/05 04:46:59;;;;;;;12.10;11.00;;;;;;;21.49;36.88;95622.91;6151640;28;103177;-79
2023/01/05 04:50:16;;;;;;;12.37;11.27;;;;;;;21.48;37.20;95614.13;6167684;28;103821;-81
2023/01/05 04:53:21;;;;;;;14.87;13.37;;;;;;;21.45;37.13;95627.25;6171890;28;103438;-78
2023/01/05 04:56:24;;;;;;;21.40;19.27;;;;;;;20.98;36.64;95612.09;6170681;28;102994;-78
2023/01/05 04:59:28;;;;;;;20.63;18.77;;;;;;;20.86;35.32;95641.78;6157958;28;103653;-78
2023/01/05 05:02:32;;;;;;;21.20;19.20;;;;;;;20.54;35.36;95610.47;6172864;28;103510;-78
2023/01/05 05:05:36;;;;;;;20.40;18.30;;;;;;;19.91;35.28;95525.47;6167315;28;102716;-78
2023/01/05 05:08:43;;;;;;;23.00;20.77;;;;;;;20.58;35.87;95646.84;6173300;28;102827;-75
2023/01/05 05:11:47;;;;;;;21.77;19.63;;;;;;;20.59;36.50;95632.47;6168890;28;103187;-77
2023/01/05 05:14:52;;;;;;;20.77;18.67;;;;;;;20.96;35.79;95640.84;6173039;28;104913;-79
2023/01/05 05:17:56;;;;;;;17.90;16.17;;;;;;;20.41;35.62;95526.06;6157375;28;102541;-79
2023/01/05 05:21:00;;;;;;;17.17;15.57;;;;;;;20.73;35.55;95554.69;6175211;28;104307;-77
2023/01/05 05:24:06;;;;;;;17.80;16.07;;;;;;;21.24;35.74;95637.38;6170618;28;103679;-79
2023/01/05 05:27:09;;;;;;;16.10;14.60;;;;;;;21.30;35.19;95625.56;6150362;28;103021;-79
2023/01/05 05:30:13;;;;;;;15.33;13.93;;;;;;;21.57;34.77;95640.94;6147997;28;104228;-77
2023/01/05 05:33:17;;;;;;;15.83;14.33;;;;;;;21.65;34.97;95642.13;6140044;28;103262;-78
2023/01/05 05:36:20;;;;;;;15.13;13.73;;;;;;;21.66;35.33;95639.19;6145676;28;103004;-77
2023/01/05 05:39:25;;;;;;;15.43;13.97;;;;;;;21.73;35.04;95633.53;6146292;28;103599;-77
2023/01/05 05:42:28;;;;;;;14.73;13.30;;;;;;;21.74;34.83;95624.44;6146101;28;104860;-77
2023/01/05 05:45:31;;;;;;;14.17;12.87;;;;;;;21.66;35.10;95606.44;6136529;28;102968;-77
2023/01/05 05:48:34;;;;;;;14.30;13.00;;;;;;;21.77;34.57;95619.31;6147428;28;105339;-78
2023/01/05 05:51:37;;;;;;;13.63;12.33;;;;;;;21.61;35.04;95582.56;6170837;28;102946;-77
2023/01/05 05:54:43;;;;;;;14.13;12.73;;;;;;;21.76;34.76;95604.44;6170436;28;103048;-77
2023/01/05 05:57:46;;;;;;;14.03;12.83;;;;;;;21.71;34.80;95593.06;6158628;28;104352;-77
2023/01/05 06:00:50;;;;;;;13.27;11.87;;;;;;;21.62;35.13;95579.59;6150923;28;103215;-78
2023/01/05 06:03:53;;;;;;;14.23;12.93;;;;;;;21.76;34.91;95607.09;6146108;28;103060;-78
2023/01/05 06:06:57;;;;;;;12.87;11.67;;;;;;;21.75;34.81;95594.84;6157284;28;103125;-78
2023/01/05 06:10:01;;;;;;;12.73;11.53;;;;;;;21.74;34.99;95589.81;6167194;28;105915;-78
2023/01/05 06:13:05;;;;;;;13.83;12.53;;;;;;;21.61;35.12;95571.91;6170872;28;103532;-79
2023/01/05 06:16:09;;;;;;;12.30;11.30;;;;;;;21.56;35.13;95558.66;6159660;28;103475;-79
2023/01/05 06:19:12;;;;;;;12.57;11.37;;;;;;;21.60;35.00;95560.44;6139072;28;104857;-79
2023/01/05 06:22:16;;;;;;;13.97;12.70;;;;;;;21.52;35.18;95545.94;6146534;28;103357;-79
2023/01/05 06:25:22;;;;;;;12.90;11.70;;;;;;;21.48;35.03;95560.88;6145960;28;103244;-77
2023/01/05 06:28:26;;;;;;;12.70;11.50;;;;;;;21.57;35.35;95555.72;6146986;28;102998;-78
2023/01/05 06:31:29;;;;;;;13.10;12.00;;;;;;;21.53;35.44;95554.72;6162839;28;103727;-79
2023/01/05 06:34:32;;;;;;;12.37;11.23;;;;;;;21.64;35.25;95573.97;6170929;28;102700;-78
2023/01/05 06:37:35;;;;;;;12.03;10.97;;;;;;;21.41;35.39;95530.38;6147884;28;103071;-79
2023/01/05 06:40:43;;;;;;;12.47;11.33;;;;;;;21.62;35.56;95568.16;6163640;28;104097;-79
2023/01/05 06:43:46;;;;;;;12.10;11.10;;;;;;;21.39;35.46;95538.66;6166964;28;103285;-80
2023/01/05 06:46:49;;;;;;;12.70;11.60;;;;;;;21.59;35.53;95569.53;6170926;28;103748;-80
2023/01/05 06:49:53;;;;;;;12.10;10.90;;;;;;;21.63;35.34;95567.06;6174431;28;102651;-80
2023/01/05 06:52:56;;;;;;;11.10;10.10;;;;;;;21.50;35.42;95553.38;6166786;28;102728;-80
2023/01/05 06:56:05;;;;;;;12.10;11.00;;;;;;;21.61;35.35;95566.56;6162595;28;103430;-80
2023/01/05 06:59:08;;;;;;;11.23;10.13;;;;;;;21.41;35.39;95535.72;6153931;28;103210;-79
2023/01/05 07:02:15;;;;;;;11.77;10.67;;;;;;;21.53;35.20;95549.38;6176734;28;103651;-80
2023/01/05 07:05:18;;;;;;;11.07;10.17;;;;;;;21.85;34.72;95555.84;6165846;28;104870;-79
2023/01/05 07:08:21;;;;;;;11.30;10.30;;;;;;;22.44;34.16;95583.63;6154031;28;105232;-80
2023/01/05 07:11:28;;;;;;;11.20;10.30;;;;;;;22.43;34.18;95564.16;6154458;28;102986;-81
2023/01/05 07:14:31;;;;;;;11.90;10.80;;;;;;;22.43;34.14;95569.50;6154348;28;105282;-81
2023/01/05 07:17:35;;;;;;;10.77;9.87;;;;;;;21.40;34.49;95401.03;6145900;28;105363;-80
2023/01/05 07:20:38;;;;;;;10.80;9.90;;;;;;;22.37;33.87;95550.16;6153142;28;102819;-81
2023/01/05 07:23:42;;;;;;;11.27;10.27;;;;;;;22.42;34.37;95554.59;6152290;28;103321;-80
2023/01/05 07:26:46;;;;;;;10.83;9.93;;;;;;;22.39;34.05;95569.31;6161902;28;104656;-79
2023/01/05 07:29:50;;;;;;;10.67;9.67;;;;;;;22.12;34.77;95545.25;6166551;28;105313;-80
2023/01/05 07:32:54;;;;;;;10.47;9.57;;;;;;;22.02;34.35;95534.78;6153830;28;104980;-80
2023/01/05 07:36:01;;;;;;;10.80;9.90;;;;;;;22.20;34.94;95552.59;6152867;28;103234;-79
2023/01/05 07:39:04;;;;;;;11.23;10.23;;;;;;;22.14;34.77;95547.63;6146468;28;103635;-80
2023/01/05 07:42:09;;;;;;;10.93;10.03;;;;;;;22.25;34.45;95543.69;6175945;28;105174;-81
2023/01/05 07:45:12;;;;;;;9.87;9.03;;;;;;;22.31;34.93;95545.19;6171991;28;103129;-79
2023/01/05 07:48:16;;;;;;;11.43;10.43;;;;;;;22.26;34.53;95527.41;6149902;28;104274;-78
2023/01/05 07:51:25;;;;;;;9.63;8.83;;;;;;;22.41;34.25;95545.00;6139408;28;102754;-78
2023/01/05 07:54:28;;;;;;;11.03;10.13;;;;;;;21.80;34.61;95453.56;6149306;28;103262;-79
2023/01/05 07:57:33;;;;;;;10.30;9.40;;;;;;;22.37;34.91;95536.81;6167019;28;102838;-80
2023/01/05 08:00:37;;;;;;;11.50;10.50;;;;;;;22.37;34.63;95530.69;6147953;28;103394;-77
2023/01/05 08:03:41;;;;;;;16.50;15.03;;;;;;;22.42;35.24;95536.72;6167735;28;103382;-79
2023/01/05 08:06:44;;;;;;;15.40;13.90;;;;;;;22.02;34.82;95466.28;6156325;28;103113;-80
2023/01/05 08:16:43;;;;;;;14.50;13.37;;;;;;;22.10;35.26;95456.81;6159106;28;103410;-80
2023/01/05 08:19:46;;;;;;;14.43;13.23;;;;;;;22.43;35.10;95518.84;6161721;28;103114;-78
2023/01/05 08:22:51;;;;;;;13.93;12.80;;;;;;;22.20;35.63;95485.94;6144419;28;103194;-78
2023/01/05 08:25:55;;;;;;;13.90;12.70;;;;;;;22.22;35.58;95496.31;6138324;28;103928;-79
2023/01/05 08:29:00;;;;;;;13.83;12.43;;;;;;;22.35;35.37;95519.53;6146425;28;102956;-79
2023/01/05 08:32:03;;;;;;;14.13;12.93;;;;;;;22.32;35.63;95526.22;6144120;28;103049;-79
2023/01/05 08:35:07;;;;;;;13.87;12.67;;;;;;;22.20;35.85;95501.16;6138194;28;103702;-79
2023/01/05 08:38:10;;;;;;;13.63;12.43;;;;;;;22.29;35.31;95523.34;6144344;28;103580;-78
2023/01/05 08:41:16;;;;;;;13.90;12.70;;;;;;;22.03;35.34;95489.19;6144878;28;103314;-80
2023/01/05 08:44:21;;;;;;;13.97;12.77;;;;;;;22.27;35.42;95525.53;6146132;28;103178;-79
2023/01/05 08:47:24;;;;;;;14.40;13.10;;;;;;;22.29;35.64;95520.69;6137637;28;104756;-80
2023/01/05 08:50:30;;;;;;;12.63;11.63;;;;;;;21.95;35.44;95471.19;6146436;28;102994;-80
2023/01/05 08:53:35;;;;;;;13.50;12.40;;;;;;;22.19;35.20;95494.25;6145696;28;104806;-80
2023/01/05 08:56:38;;;;;;;14.03;12.80;;;;;;;22.23;35.21;95495.22;6144142;28;104398;-79
2023/01/05 08:59:43;;;;;;;13.00;11.90;;;;;;;22.34;35.08;95500.06;6135318;28;103306;-81
2023/01/05 09:02:46;;;;;;;12.70;11.60;;;;;;;22.35;35.28;95501.66;6145894;28;107262;-82
2023/01/05 09:05:53;;;;;;;12.97;11.77;;;;;;;22.36;35.11;95491.78;6145124;28;106159;-81
2023/01/05 09:08:56;;;;;;;12.70;11.60;;;;;;;22.24;35.25;95478.13;6140613;28;103240;-81
2023/01/05 09:11:59;;;;;;;12.93;11.83;;;;;;;22.21;35.13;95460.88;6142084;28;104112;-80
2023/01/05 09:15:06;;;;;;;12.73;11.63;;;;;;;22.37;35.66;95469.38;6142816;28;103123;-81
2023/01/05 09:18:09;;;;;;;14.00;12.80;;;;;;;22.16;35.58;95425.50;6144942;28;103155;-79
2023/01/05 09:21:13;;;;;;;12.03;10.93;;;;;;;22.31;35.66;95447.31;6137382;28;103161;-78
2023/01/05 09:24:16;;;;;;;11.73;10.80;;;;;;;22.35;35.14;95435.00;6149339;28;102960;-79
2023/01/05 09:27:19;;;;;;;12.20;11.00;;;;;;;22.37;35.49;95432.03;6143894;28;103063;-78
2023/01/05 09:30:26;;;;;;;11.20;10.30;;;;;;;22.37;35.04;95421.38;6143098;28;103098;-78
2023/01/05 09:33:31;;;;;;;11.60;10.70;;;;;;;22.37;35.62;95413.38;6134701;28;103497;-78
2023/01/05 09:36:34;;;;;;;11.97;10.97;;;;;;;22.39;35.00;95411.19;6142596;28;103328;-78
2023/01/05 09:39:39;;;;;;;11.73;10.83;;;;;;;22.29;35.24;95390.06;6142317;28;102761;-79
2023/01/05 09:42:45;;;;;;;11.80;10.80;;;;;;;22.33;35.13;95401.69;6141095;28;104055;-81
2023/01/05 09:45:50;;;;;;;11.47;10.57;;;;;;;22.34;35.39;95397.94;6141014;28;102960;-81
2023/01/05 09:48:57;;;;;;;11.90;10.90;;;;;;;22.36;35.29;95391.25;6146364;28;102733;-80
2023/01/05 09:52:07;;;;;;;11.90;11.00;;;;;;;22.39;35.49;95371.19;6145721;28;103655;-80
2023/01/05 09:55:17;;;;;;;11.40;10.47;;;;;;;22.40;35.08;95367.44;6140066;28;102891;-80
2023/01/05 09:58:26;;;;;;;11.20;10.17;;;;;;;22.43;35.38;95361.50;6145179;28;102664;-80
2023/01/05 10:01:36;;;;;;;11.53;10.63;;;;;;;22.19;35.04;95318.31;6144781;28;103236;-79
2023/01/05 10:04:40;;;;;;;11.30;10.40;;;;;;;22.47;35.01;95354.47;6142587;28;103153;-79
2023/01/05 10:07:48;;;;;;;11.23;10.30;;;;;;;22.50;34.99;95342.41;6135378;28;103409;-79
2023/01/05 10:14:17;;;;;;;11.00;10.10;;;;;;;22.53;34.94;95345.28;6142188;28;103293;-80
2023/01/05 10:17:23;;;;;;;10.90;10.00;;;;;;;22.47;35.31;95327.81;6138296;28;103723;-80
2023/01/05 10:21:00;;;;;;;10.20;9.40;;;;;;;22.51;34.94;95335.97;6144979;28;102785;-81
2023/01/05 10:24:18;;;;;;;10.37;9.47;;;;;;;22.54;34.75;95335.41;6145700;28;103577;-80
2023/01/05 10:27:26;;;;;;;10.27;9.40;;;;;;;22.55;35.09;95332.44;6145763;28;102765;-80
2023/01/05 10:30:45;;;;;;;9.93;9.03;;;;;;;22.47;35.12;95321.69;6137236;28;103023;-80
2023/01/05 10:33:52;;;;;;;10.83;9.93;;;;;;;22.52;35.44;95327.72;6148932;28;103084;-80
2023/01/05 10:37:20;;;;;;;10.70;9.90;;;;;;;22.53;35.49;95321.28;6149517;28;102990;-80
2023/01/05 10:40:39;;;;;;;10.10;9.23;;;;;;;22.51;35.09;95317.31;6142663;28;105031;-80
2023/01/05 10:44:07;;;;;;;10.30;9.40;;;;;;;22.44;35.45;95304.41;6148782;28;103815;-80
2023/01/05 10:47:12;;;;;;;10.40;9.47;;;;;;;22.19;35.26;95259.66;6129905;28;103759;-80
2023/01/05 10:50:30;;;;;;;9.40;8.60;;;;;;;22.34;35.36;95269.97;6147810;28;103020;-80
2023/01/05 10:53:39;;;;;;;9.83;9.03;;;;;;;22.45;35.14;95281.97;6140581;28;103234;-79
2023/01/05 10:56:42;;;;;;;9.80;9.00;;;;;;;22.44;35.09;95269.75;6152357;28;105509;-82
2023/01/05 10:59:55;;;;;;;10.20;9.40;;;;;;;22.47;34.93;95263.00;6150514;28;103059;-79
2023/01/05 11:03:03;;;;;;;10.03;9.20;;;;;;;22.56;35.25;95278.00;6139231;28;103017;-80
2023/01/05 11:06:09;;;;;;;10.70;9.80;;;;;;;22.56;35.38;95280.66;6148892;28;102969;-80
2023/01/05 11:09:18;;;;;;;10.23;9.40;;;;;;;22.56;35.15;95278.00;6148533;28;104085;-79
2023/01/05 11:12:25;;;;;;;9.97;9.07;;;;;;;22.55;35.46;95272.97;6147367;28;105412;-80
2023/01/05 11:15:30;;;;;;;10.00;9.20;;;;;;;22.32;35.42;95234.81;6138728;28;102725;-79
2023/01/05 11:18:40;;;;;;;10.13;9.33;;;;;;;22.55;35.17;95265.75;6145907;28;103253;-80
2023/01/05 11:21:48;;;;;;;9.13;8.40;;;;;;;22.26;35.73;95215.50;6146153;28;103284;-79
2023/01/05 11:24:51;;;;;;;9.83;8.93;;;;;;;22.54;35.09;95258.06;6142830;28;103085;-79
2023/01/05 11:28:14;;;;;;;9.37;8.60;;;;;;;22.49;35.55;95250.16;6141655;28;103051;-80
2023/01/05 11:31:18;;;;;;;9.57;8.87;;;;;;;22.47;35.09;95253.13;6146012;28;102714;-80
2023/01/05 11:34:32;;;;;;;9.80;9.00;;;;;;;22.35;35.63;95229.69;6146455;28;103428;-80
2023/01/05 11:37:37;;;;;;;9.07;8.33;;;;;;;22.45;35.62;95241.97;6139188;28;103315;-80
2023/01/05 11:40:43;;;;;;;9.23;8.53;;;;;;;21.90;34.75;95156.91;6147107;28;104581;-79
2023/01/05 11:43:48;;;;;;;10.10;9.20;;;;;;;22.43;35.33;95236.16;6145440;28;104108;-79
2023/01/05 11:46:51;;;;;;;9.60;8.80;;;;;;;22.41;35.41;95227.69;6145687;28;103399;-80
2023/01/05 11:50:00;;;;;;;9.87;8.97;;;;;;;22.38;35.50;95222.97;6137789;28;103003;-80
2023/01/05 11:53:24;;;;;;;9.60;8.80;;;;;;;22.40;36.04;95226.91;6147150;28;103690;-80
2023/01/05 11:56:28;;;;;;;9.07;8.37;;;;;;;22.24;35.64;95193.69;6146893;28;103080;-80
2023/01/05 11:59:31;;;;;;;9.00;8.20;;;;;;;22.26;35.56;95196.06;6139764;28;105199;-79
2023/01/05 12:03:02;;;;;;;9.37;8.57;;;;;;;22.46;35.18;95213.44;6145282;28;106793;-79
2023/01/05 12:06:12;;;;;;;8.43;7.83;;;;;;;22.48;35.42;95214.72;6145808;28;102898;-80
2023/01/05 12:09:26;;;;;;;8.70;8.00;;;;;;;22.19;35.71;95161.03;6146807;28;103296;-81
2023/01/05 12:12:46;;;;;;;9.27;8.47;;;;;;;22.38;35.52;95197.09;6139591;28;104021;-81
2023/01/05 12:16:10;;;;;;;8.10;7.50;;;;;;;22.26;35.67;95180.84;6146944;28;102612;-81
2023/01/05 12:20:04;;;;;;;8.07;7.40;;;;;;;22.45;35.79;95204.66;6145827;28;102981;-80
2023/01/05 12:23:19;;;;;;;8.57;7.87;;;;;;;22.46;35.13;95197.44;6147311;28;103128;-80
2023/01/05 12:26:27;;;;;;;8.40;7.70;;;;;;;22.31;35.44;95183.38;6169589;28;106101;-80
2023/01/05 12:30:03;;;;;;;8.63;7.93;;;;;;;22.17;35.17;95157.88;6168987;28;102941;-80
2023/01/05 12:33:51;;;;;;;8.57;7.87;;;;;;;22.38;35.79;95181.09;6147691;28;102841;-80
2023/01/05 12:37:29;;;;;;;7.97;7.37;;;;;;;22.36;35.31;95163.81;6168663;28;103010;-80
2023/01/05 12:40:58;;;;;;;8.63;7.93;;;;;;;22.34;35.58;95152.66;6168382;28;104249;-80
2023/01/05 12:44:23;;;;;;;8.27;7.63;;;;;;;22.22;35.63;95129.22;6168214;28;102968;-80
2023/01/05 12:47:53;;;;;;;8.40;7.70;;;;;;;22.30;35.65;95151.69;6164388;28;103365;-79
2023/01/05 12:51:05;;;;;;;8.50;7.80;;;;;;;22.28;35.39;95161.88;6165705;28;103420;-80
2023/01/05 12:54:13;;;;;;;8.30;7.60;;;;;;;22.27;36.02;95146.97;6167972;28;103449;-80
2023/01/05 12:57:24;;;;;;;8.53;7.83;;;;;;;22.25;35.87;95154.50;6159568;28;103564;-78
2023/01/05 13:00:34;;;;;;;8.30;7.60;;;;;;;22.20;35.45;95149.28;6167624;28;102926;-77
2023/01/05 13:03:44;;;;;;;8.40;7.70;;;;;;;22.23;35.95;95159.34;6161542;28;103133;-80
2023/01/05 13:06:53;;;;;;;8.13;7.43;;;;;;;22.11;35.83;95142.00;6144668;28;104366;-82
2023/01/05 13:09:59;;;;;;;8.00;7.30;;;;;;;21.23;35.52;95010.34;6138851;28;104018;-83
2023/01/05 13:13:11;;;;;;;8.77;8.07;;;;;;;21.79;35.62;95105.69;6143066;28;103301;-80
2023/01/05 13:16:21;;;;;;;8.53;7.83;;;;;;;22.23;35.92;95172.66;6155782;28;105160;-80
2023/01/05 13:19:30;;;;;;;8.43;7.83;;;;;;;22.24;36.20;95168.91;6162671;28;103143;-80
2023/01/05 13:22:36;;;;;;;8.60;7.80;;;;;;;22.27;36.39;95165.63;6168982;28;103261;-79
2023/01/05 13:25:50;;;;;;;8.40;7.70;;;;;;;22.27;36.50;95166.41;6168734;28;104913;-80
2023/01/05 13:28:55;;;;;;;7.83;7.20;;;;;;;22.30;36.76;95165.81;6172122;28;102750;-80
2023/01/05 13:32:15;;;;;;;8.30;7.67;;;;;;;22.28;36.40;95161.88;6161024;28;104090;-79
2023/01/05 13:35:34;;;;;;;7.43;6.83;;;;;;;22.26;36.95;95164.84;6167781;28;103496;-78
2023/01/05 13:39:02;;;;;;;8.50;7.73;;;;;;;22.15;37.02;95139.53;6170006;28;102712;-80
2023/01/05 13:42:24;;;;;;;8.13;7.53;;;;;;;22.12;36.81;95129.47;6163725;28;102923;-80
2023/01/05 13:46:00;;;;;;;8.30;7.60;;;;;;;22.27;37.09;95147.75;6170448;28;103367;-80
2023/01/05 13:49:30;;;;;;;7.90;7.30;;;;;;;22.28;37.15;95140.56;6159700;28;102931;-78
2023/01/05 13:52:49;;;;;;;8.37;7.70;;;;;;;22.15;37.05;95107.53;6166583;28;103302;-81
2023/01/05 13:55:56;;;;;;;7.90;7.30;;;;;;;22.00;36.98;95087.38;6164970;28;102880;-79
2023/01/05 13:59:01;;;;;;;8.40;7.60;;;;;;;22.21;37.29;95126.88;6168800;28;104722;-78
2023/01/05 14:02:24;;;;;;;8.10;7.40;;;;;;;22.02;37.02;95105.75;6169806;28;104969;-79
2023/01/05 14:05:34;;;;;;;8.10;7.40;;;;;;;21.81;36.75;95070.75;6162317;28;103351;-80
2023/01/05 14:08:40;;;;;;;7.83;7.20;;;;;;;20.99;37.07;94935.28;6169848;28;103350;-81
2023/01/05 14:12:16;;;;;;;7.73;7.13;;;;;;;21.30;37.19;94983.28;6168186;28;103076;-81
2023/01/05 14:15:39;;;;;;;8.00;7.30;;;;;;;22.07;37.18;95100.28;6149632;28;102683;-81
2023/01/05 14:18:52;;;;;;;9.10;8.30;;;;;;;22.12;37.80;95110.81;6163183;28;103300;-80
2023/01/05 14:22:02;;;;;;;7.30;6.70;;;;;;;22.26;37.49;95121.41;6168603;28;103319;-80
2023/01/05 14:25:42;;;;;;;7.50;6.90;;;;;;;21.55;37.73;95011.22;6169969;28;103279;-82
2023/01/05 14:28:47;;;;;;;8.10;7.50;;;;;;;22.25;37.85;95122.50;6138673;28;104303;-80
2023/01/05 14:31:51;;;;;;;8.00;7.30;;;;;;;22.24;38.03;95120.94;6145975;28;104032;-81
2023/01/05 14:34:56;;;;;;;7.70;7.10;;;;;;;22.24;37.80;95128.94;6144361;28;103015;-80
2023/01/05 14:38:03;;;;;;;7.53;6.90;;;;;;;22.24;37.68;95126.25;6141768;28;103330;-81
2023/01/05 14:41:15;;;;;;;7.60;6.90;;;;;;;22.24;38.11;95136.94;6140129;28;104215;-80
2023/01/05 14:44:21;;;;;;;7.00;6.50;;;;;;;21.88;38.08;95078.38;6143127;28;103503;-81
2023/01/05 14:47:35;;;;;;;7.80;7.20;;;;;;;22.26;38.05;95134.75;6143682;28;102758;-81
2023/01/05 14:50:42;;;;;;;7.20;6.60;;;;;;;22.12;38.28;95118.81;6139002;28;103609;-81
2023/01/05 14:53:49;;;;;;;7.70;7.10;;;;;;;22.26;38.35;95140.06;6149898;28;105188;-82
2023/01/05 14:57:34;;;;;;;8.07;7.37;;;;;;;21.98;38.84;95100.22;6167732;28;102880;-81
2023/01/05 15:00:45;;;;;;;7.00;6.40;;;;;;;22.24;38.64;95137.72;6146107;28;104015;-81
2023/01/05 15:03:53;;;;;;;7.33;6.73;;;;;;;22.24;38.64;95132.38;6141724;28;104339;-80
2023/01/05 15:07:15;;;;;;;7.43;6.83;;;;;;;22.24;39.00;95144.91;6145045;28;103597;-81
2023/01/05 15:10:51;;;;;;;9.53;7.50;;;;;;;22.08;38.67;95121.28;6143320;28;103323;-78